Great River, New York
Current Conditions -  °F | °C
As of 2:56 PM on Saturday 25 Oct 2014 (Local Time) from KISP Reporting Station
Scattered Clouds Scattered Clouds  
Wind Chill: 66°   Ceiling: Unl
Heat Index: 66°   Visibility: 10mi
Dew Point: 43°   Wind: 13mph
Humidity: 43%   Direction: 260°W
Pressure: 29.69"   Gusts: NA
Location:  40.72°N, 73.16°W
Report Text: KISP 251856Z 26011KT 10SM SCT250 19/06 A2969 RMK AO2 SLP053 T01890061
Loading
Personal Weather Stations






























Interactive Weather Map
Tropical Storm Tracking
New forecast layout! Learn more

10-Day Weather Forecast

Advertisements
Track Severe Weather on mobile